Time;durP1;ratioP1;P1;durP2;ratioP2;P2;SDS_P1;SDS_P2;PMS_P1;PMS_P2;Temp;Humidity;BMP_temperature;BMP_pressure;BME280_temperature;BME280_humidity;BME280_pressure;Samples;Min_cycle;Max_cycle;Signal;HPM_P1;HPM_P2
2022/12/30 00:01:32;;;;;;;3.92;1.48;;;;;;;;;;10555739;28;20039;-79
2022/12/30 00:06:33;;;;;;;5.10;1.80;;;;;;;;;;10544189;28;20031;-80
2022/12/30 00:11:36;;;;;;;3.42;1.27;;;;;;;;;;10544849;28;20393;-77
2022/12/30 00:38:02;;;;;;;2.20;1.10;;;;;;;;;;10540359;28;20047;-80
2022/12/30 00:43:09;;;;;;;3.28;1.10;;;;;;;;;;10537593;28;20547;-78
2022/12/30 00:58:47;;;;;;;3.08;1.42;;;;;;;;;;10549374;28;20525;-78
2022/12/30 01:03:48;;;;;;;2.40;0.95;;;;;;;;;;10542779;28;20027;-77
2022/12/30 01:08:49;;;;;;;4.85;1.45;;;;;;;;;;10550208;28;20028;-77
2022/12/30 01:13:49;;;;;;;4.83;1.07;;;;;;;;;;10557695;28;20027;-78
2022/12/30 01:18:50;;;;;;;3.10;1.10;;;;;;;;;;10532961;28;20278;-79
2022/12/30 01:23:52;;;;;;;4.60;1.60;;;;;;;;;;10550219;28;20071;-76
2022/12/30 01:28:54;;;;;;;2.60;1.00;;;;;;;;;;10557695;28;20044;-77
2022/12/30 01:33:57;;;;;;;1.95;0.90;;;;;;;;;;10543395;28;20039;-77
2022/12/30 01:39:14;;;;;;;3.35;1.23;;;;;;;;;;10541815;28;20048;-76
2022/12/30 01:44:33;;;;;;;2.08;0.93;;;;;;;;;;10554423;28;20433;-77
2022/12/30 01:49:38;;;;;;;2.17;1.02;;;;;;;;;;10553500;28;20046;-77
2022/12/30 01:54:38;;;;;;;2.97;0.90;;;;;;;;;;10537897;28;20040;-76
2022/12/30 01:59:39;;;;;;;2.53;1.00;;;;;;;;;;10548146;28;20036;-77
2022/12/30 02:04:39;;;;;;;2.55;1.10;;;;;;;;;;10522628;28;20035;-78
2022/12/30 02:09:40;;;;;;;1.50;0.98;;;;;;;;;;10540766;28;20032;-77
2022/12/30 02:14:42;;;;;;;1.70;0.88;;;;;;;;;;10561800;27;20062;-81
2022/12/30 02:19:45;;;;;;;1.85;0.90;;;;;;;;;;10557494;28;20039;-78
2022/12/30 02:24:46;;;;;;;;;;;;;;;;;;10554533;27;20206;-78
2022/12/30 02:29:46;;;;;;;1.52;1.10;;;;;;;;;;10535493;27;19961;-81
2022/12/30 02:34:49;;;;;;;5.60;1.50;;;;;;;;;;10553803;27;20093;-78
2022/12/30 02:39:50;;;;;;;;;;;;;;;;;;10555114;28;20550;-78
2022/12/30 02:44:57;;;;;;;3.72;1.60;;;;;;;;;;10550392;28;19916;-76
2022/12/30 02:55:19;;;;;;;2.47;1.40;;;;;;;;;;10545363;28;20085;-76
2022/12/30 03:05:55;;;;;;;2.78;1.15;;;;;;;;;;10554872;28;20035;-76
2022/12/30 03:11:16;;;;;;;2.92;1.25;;;;;;;;;;10555565;28;20054;-78
2022/12/30 03:16:27;;;;;;;3.90;1.23;;;;;;;;;;10550953;28;20381;-78
2022/12/30 03:21:30;;;;;;;3.00;1.40;;;;;;;;;;10555396;28;20031;-79
2022/12/30 03:31:50;;;;;;;4.43;1.50;;;;;;;;;;10535421;28;20414;-77
2022/12/30 03:36:52;;;;;;;6.28;2.03;;;;;;;;;;10548336;28;20047;-79
2022/12/30 03:41:54;;;;;;;5.78;1.73;;;;;;;;;;10534071;28;20477;-78
2022/12/30 03:46:54;;;;;;;3.47;1.95;;;;;;;;;;10546597;28;20032;-80
2022/12/30 03:51:55;;;;;;;4.10;1.80;;;;;;;;;;10548389;28;20132;-78
2022/12/30 03:56:55;;;;;;;2.33;1.77;;;;;;;;;;10536553;28;20082;-78
2022/12/30 04:01:55;;;;;;;3.08;1.80;;;;;;;;;;10557912;28;20281;-79
2022/12/30 04:06:56;;;;;;;4.03;1.95;;;;;;;;;;10547475;28;20028;-78
2022/12/30 04:11:56;;;;;;;5.00;2.00;;;;;;;;;;10545634;28;20047;-77
2022/12/30 04:16:57;;;;;;;4.53;2.40;;;;;;;;;;10545228;28;20624;-76
2022/12/30 04:21:57;;;;;;;9.17;2.30;;;;;;;;;;10551107;28;20277;-75
2022/12/30 04:26:58;;;;;;;2.80;2.00;;;;;;;;;;10545575;28;20864;-76
2022/12/30 04:31:58;;;;;;;4.78;2.63;;;;;;;;;;10541020;28;20304;-76
2022/12/30 04:36:59;;;;;;;6.25;3.17;;;;;;;;;;10555537;28;20058;-76
2022/12/30 04:42:00;;;;;;;5.88;3.20;;;;;;;;;;10547672;28;20038;-76
2022/12/30 04:47:00;;;;;;;5.60;3.10;;;;;;;;;;10547529;28;20039;-77
2022/12/30 04:52:00;;;;;;;6.07;3.73;;;;;;;;;;10557264;28;20937;-80
2022/12/30 04:57:01;;;;;;;6.93;3.17;;;;;;;;;;10536628;28;20617;-78
2022/12/30 05:02:01;;;;;;;5.87;2.90;;;;;;;;;;10540548;28;20059;-77
2022/12/30 05:07:02;;;;;;;5.22;2.88;;;;;;;;;;10551537;28;20289;-79
2022/12/30 05:12:02;;;;;;;6.45;3.20;;;;;;;;;;10554993;28;20134;-78
2022/12/30 05:17:03;;;;;;;6.28;3.20;;;;;;;;;;10554275;28;20039;-77
2022/12/30 05:22:04;;;;;;;7.53;3.05;;;;;;;;;;10549693;28;20036;-77
2022/12/30 05:27:04;;;;;;;5.43;3.47;;;;;;;;;;10546777;28;20089;-78
2022/12/30 05:32:04;;;;;;;7.57;3.65;;;;;;;;;;10560533;28;20318;-77
2022/12/30 05:37:05;;;;;;;5.47;3.13;;;;;;;;;;10536912;28;20051;-77
2022/12/30 05:42:05;;;;;;;5.47;3.10;;;;;;;;;;10552158;28;20326;-78
2022/12/30 05:47:06;;;;;;;6.68;3.45;;;;;;;;;;10530940;28;20043;-80
2022/12/30 05:52:07;;;;;;;4.57;3.00;;;;;;;;;;10560482;28;20054;-78
2022/12/30 05:57:07;;;;;;;7.45;3.70;;;;;;;;;;10554898;28;20080;-79
2022/12/30 06:02:08;;;;;;;6.53;3.10;;;;;;;;;;10537217;28;20560;-78
2022/12/30 06:07:08;;;;;;;3.60;2.90;;;;;;;;;;10557900;28;20040;-79
2022/12/30 06:12:08;;;;;;;7.40;2.67;;;;;;;;;;10580139;28;20082;-78
2022/12/30 06:17:09;;;;;;;4.50;2.70;;;;;;;;;;10534313;28;20043;-78
2022/12/30 06:22:09;;;;;;;10.43;4.03;;;;;;;;;;10560182;28;20301;-78
2022/12/30 06:27:09;;;;;;;4.17;2.83;;;;;;;;;;10547614;28;20294;-81
2022/12/30 06:32:11;;;;;;;4.17;2.73;;;;;;;;;;10555158;28;20385;-79
2022/12/30 06:37:12;;;;;;;5.10;2.65;;;;;;;;;;10543821;28;20413;-78
2022/12/30 06:42:13;;;;;;;5.38;2.65;;;;;;;;;;10545217;28;20034;-78
2022/12/30 06:47:13;;;;;;;3.33;2.53;;;;;;;;;;10551907;28;20036;-78
2022/12/30 06:52:14;;;;;;;4.22;3.00;;;;;;;;;;10544833;28;20385;-76
2022/12/30 06:57:15;;;;;;;6.50;3.50;;;;;;;;;;10546134;28;20040;-79
2022/12/30 07:02:16;;;;;;;8.27;3.55;;;;;;;;;;10587073;28;20031;-79
2022/12/30 07:07:17;;;;;;;7.35;4.57;;;;;;;;;;10588931;28;20761;-78
2022/12/30 07:12:18;;;;;;;8.32;4.22;;;;;;;;;;10547070;28;20059;-78
2022/12/30 07:17:18;;;;;;;5.65;3.85;;;;;;;;;;10539841;28;20046;-81
2022/12/30 07:22:18;;;;;;;7.00;4.28;;;;;;;;;;10527392;28;20027;-81
2022/12/30 07:27:19;;;;;;;6.40;3.20;;;;;;;;;;10539380;28;20032;-78
2022/12/30 07:32:19;;;;;;;7.80;3.80;;;;;;;;;;10537577;28;20048;-78
2022/12/30 07:37:21;;;;;;;5.85;4.43;;;;;;;;;;10542811;28;20051;-78
2022/12/30 07:42:21;;;;;;;9.65;3.90;;;;;;;;;;10554977;28;20036;-78
2022/12/30 07:47:22;;;;;;;9.35;4.95;;;;;;;;;;10558299;28;20032;-76
2022/12/30 07:52:22;;;;;;;10.32;4.35;;;;;;;;;;10574472;28;20062;-82
2022/12/30 07:57:23;;;;;;;8.25;4.30;;;;;;;;;;10570141;28;20074;-75
2022/12/30 08:02:24;;;;;;;7.38;4.20;;;;;;;;;;10520784;28;20088;-78
2022/12/30 08:07:24;;;;;;;6.70;4.82;;;;;;;;;;10552348;28;20074;-77
2022/12/30 08:12:25;;;;;;;8.50;5.30;;;;;;;;;;10538549;28;20078;-77
2022/12/30 08:17:26;;;;;;;7.50;5.00;;;;;;;;;;10534056;28;20038;-77
2022/12/30 08:22:26;;;;;;;8.38;5.10;;;;;;;;;;10546340;28;20052;-77
2022/12/30 08:27:27;;;;;;;8.17;5.33;;;;;;;;;;10533292;28;20062;-77
2022/12/30 08:32:28;;;;;;;8.95;5.05;;;;;;;;;;10539156;28;20043;-80
2022/12/30 08:37:28;;;;;;;9.00;4.63;;;;;;;;;;10516061;28;20054;-80
2022/12/30 08:42:29;;;;;;;8.27;4.55;;;;;;;;;;10547746;28;20036;-81
2022/12/30 08:47:29;;;;;;;8.85;5.75;;;;;;;;;;10535036;28;20043;-81
2022/12/30 08:52:30;;;;;;;7.18;5.18;;;;;;;;;;10543280;28;20044;-78
2022/12/30 08:57:30;;;;;;;7.03;4.97;;;;;;;;;;10559488;28;20024;-79
2022/12/30 09:02:33;;;;;;;9.00;5.43;;;;;;;;;;10533316;28;20103;-81
2022/12/30 09:07:33;;;;;;;6.55;5.32;;;;;;;;;;10551180;28;20042;-80
2022/12/30 09:12:34;;;;;;;8.47;5.40;;;;;;;;;;10550408;28;20043;-80
2022/12/30 09:17:35;;;;;;;6.75;4.65;;;;;;;;;;10533324;28;20670;-78
2022/12/30 09:22:35;;;;;;;6.53;4.60;;;;;;;;;;10550399;28;20139;-80
2022/12/30 09:27:35;;;;;;;6.50;4.77;;;;;;;;;;10534342;28;20351;-78
2022/12/30 09:32:36;;;;;;;6.85;4.63;;;;;;;;;;10549931;28;20310;-78
2022/12/30 09:37:38;;;;;;;5.45;4.22;;;;;;;;;;10558006;28;20040;-80
2022/12/30 09:48:04;;;;;;;5.75;3.72;;;;;;;;;;10551924;28;20028;-82
2022/12/30 09:53:08;;;;;;;4.90;3.45;;;;;;;;;;10561177;28;20028;-79
2022/12/30 09:58:08;;;;;;;;;;;;;;;;;;10542591;28;20036;-79
2022/12/30 10:03:11;;;;;;;4.70;3.63;;;;;;;;;;10551678;28;19927;-78
2022/12/30 10:08:20;;;;;;;5.70;3.65;;;;;;;;;;10555996;28;20040;-79
2022/12/30 10:13:31;;;;;;;6.15;4.22;;;;;;;;;;10553767;28;20048;-79
2022/12/30 10:18:41;;;;;;;8.15;4.30;;;;;;;;;;10552568;28;20028;-80
2022/12/30 10:23:49;;;;;;;5.45;4.07;;;;;;;;;;10548451;28;20040;-78
2022/12/30 10:28:59;;;;;;;5.30;3.53;;;;;;;;;;10536040;28;20055;-81
2022/12/30 10:34:02;;;;;;;4.35;3.83;;;;;;;;;;10557378;28;20071;-78
2022/12/30 10:39:25;;;;;;;5.70;3.72;;;;;;;;;;10556608;28;20075;-78
2022/12/30 10:44:47;;;;;;;4.60;3.60;;;;;;;;;;10555175;28;20063;-77
2022/12/30 10:50:02;;;;;;;4.63;3.88;;;;;;;;;;10550229;28;20043;-81
2022/12/30 10:55:24;;;;;;;6.32;4.82;;;;;;;;;;10546090;28;20514;-79
2022/12/30 11:00:25;;;;;;;4.45;3.97;;;;;;;;;;10565255;28;20081;-78
2022/12/30 11:05:33;;;;;;;5.53;4.25;;;;;;;;;;10559421;28;20108;-79
2022/12/30 11:10:34;;;;;;;4.18;3.72;;;;;;;;;;10558360;28;20075;-79
2022/12/30 11:16:04;;;;;;;5.82;4.00;;;;;;;;;;10555774;28;20853;-78
2022/12/30 11:21:06;;;;;;;3.33;2.97;;;;;;;;;;10549000;28;20055;-79
2022/12/30 11:26:23;;;;;;;2.55;2.35;;;;;;;;;;10538331;28;20051;-79
2022/12/30 11:31:32;;;;;;;2.83;2.33;;;;;;;;;;10517374;28;20063;-78
2022/12/30 11:36:34;;;;;;;2.50;2.30;;;;;;;;;;10531937;28;20491;-80
2022/12/30 11:41:45;;;;;;;4.05;2.55;;;;;;;;;;10530897;28;20035;-78
2022/12/30 11:46:52;;;;;;;3.15;2.85;;;;;;;;;;10510045;28;20052;-79
2022/12/30 11:51:53;;;;;;;4.13;2.17;;;;;;;;;;10521982;28;20055;-78
2022/12/30 11:57:03;;;;;;;3.30;2.00;;;;;;;;;;10537427;28;20088;-79
2022/12/30 12:02:15;;;;;;;2.45;2.20;;;;;;;;;;10551760;28;20816;-75
2022/12/30 12:07:15;;;;;;;2.53;2.00;;;;;;;;;;10553307;28;20438;-76
2022/12/30 12:12:18;;;;;;;2.73;1.90;;;;;;;;;;10549860;28;20043;-76
2022/12/30 12:17:28;;;;;;;2.20;1.80;;;;;;;;;;10535542;28;20525;-76
2022/12/30 12:22:37;;;;;;;3.13;1.80;;;;;;;;;;10549689;28;20456;-78
2022/12/30 12:27:38;;;;;;;4.00;1.92;;;;;;;;;;10542234;28;20114;-75
2022/12/30 12:32:57;;;;;;;2.17;1.97;;;;;;;;;;10566171;28;20113;-77
2022/12/30 12:38:19;;;;;;;3.58;1.95;;;;;;;;;;10564215;28;20777;-76
2022/12/30 12:43:27;;;;;;;2.53;2.00;;;;;;;;;;10557752;28;20039;-79
2022/12/30 12:48:44;;;;;;;5.10;2.35;;;;;;;;;;10571609;28;20046;-78
2022/12/30 12:54:04;;;;;;;2.55;2.17;;;;;;;;;;10594343;28;20062;-78
2022/12/30 12:59:51;;;;;;;3.22;2.50;;;;;;;;;;10537007;28;20048;-76
2022/12/30 13:05:09;;;;;;;2.08;1.85;;;;;;;;;;10515024;28;20041;-77
2022/12/30 13:10:33;;;;;;;1.95;1.73;;;;;;;;;;10475540;28;20040;-79
2022/12/30 13:15:50;;;;;;;2.17;1.92;;;;;;;;;;10457145;28;20266;-80
2022/12/30 13:20:52;;;;;;;2.70;1.95;;;;;;;;;;10465645;28;20049;-79
2022/12/30 13:25:58;;;;;;;2.30;1.75;;;;;;;;;;10474654;28;20036;-78
2022/12/30 13:31:14;;;;;;;4.07;2.00;;;;;;;;;;10491050;28;20082;-78
2022/12/30 13:36:20;;;;;;;2.65;2.10;;;;;;;;;;10457885;28;20045;-78
2022/12/30 13:41:21;;;;;;;2.28;1.70;;;;;;;;;;10462790;28;20036;-79
2022/12/30 13:46:23;;;;;;;2.80;2.20;;;;;;;;;;10465963;28;20040;-78
2022/12/30 13:51:24;;;;;;;1.98;1.80;;;;;;;;;;10472168;28;20056;-80
2022/12/30 13:56:34;;;;;;;4.30;2.40;;;;;;;;;;10453954;28;20071;-79
2022/12/30 14:01:39;;;;;;;2.97;2.67;;;;;;;;;;10472551;28;20068;-78
2022/12/30 14:06:42;;;;;;;2.75;2.22;;;;;;;;;;10471585;28;20028;-78
2022/12/30 14:12:01;;;;;;;4.10;2.72;;;;;;;;;;10454451;28;20052;-78
2022/12/30 14:17:02;;;;;;;4.45;2.55;;;;;;;;;;10471263;28;20752;-77
2022/12/30 14:22:04;;;;;;;2.63;2.42;;;;;;;;;;10458128;28;20075;-76
2022/12/30 14:27:23;;;;;;;3.90;2.90;;;;;;;;;;10470723;28;20086;-80
2022/12/30 14:32:24;;;;;;;2.92;2.53;;;;;;;;;;10479033;28;20094;-77
2022/12/30 14:37:25;;;;;;;4.70;3.47;;;;;;;;;;10487051;28;20064;-76
2022/12/30 14:42:28;;;;;;;4.28;3.50;;;;;;;;;;10503560;28;20032;-80
2022/12/30 14:47:40;;;;;;;4.40;3.75;;;;;;;;;;10511655;28;20037;-77
2022/12/30 14:53:04;;;;;;;3.92;3.28;;;;;;;;;;10510081;28;20053;-78
2022/12/30 14:58:14;;;;;;;3.33;3.03;;;;;;;;;;10479569;28;20515;-77
2022/12/30 15:03:18;;;;;;;3.80;3.00;;;;;;;;;;10511928;28;20306;-77
2022/12/30 15:08:51;;;;;;;3.22;2.83;;;;;;;;;;10508344;28;20057;-77
2022/12/30 15:13:55;;;;;;;3.15;2.50;;;;;;;;;;10488692;28;20033;-76
2022/12/30 15:19:01;;;;;;;3.13;2.60;;;;;;;;;;10463955;28;20039;-76
2022/12/30 15:24:01;;;;;;;4.03;2.85;;;;;;;;;;10466515;28;20495;-77
2022/12/30 15:29:06;;;;;;;4.70;3.00;;;;;;;;;;10462522;28;20084;-77
2022/12/30 15:34:16;;;;;;;2.92;2.63;;;;;;;;;;10451840;28;20048;-78
2022/12/30 15:39:17;;;;;;;4.57;3.30;;;;;;;;;;10455424;28;20128;-78
2022/12/30 15:44:19;;;;;;;5.28;3.42;;;;;;;;;;10474786;28;20040;-76
2022/12/30 15:49:22;;;;;;;4.57;3.35;;;;;;;;;;10477265;28;20135;-78
2022/12/30 15:54:28;;;;;;;4.63;3.33;;;;;;;;;;10476784;28;20381;-76
2022/12/30 15:59:47;;;;;;;4.13;3.63;;;;;;;;;;10480176;28;20645;-78
2022/12/30 16:04:57;;;;;;;5.18;4.13;;;;;;;;;;10462586;28;20060;-77
2022/12/30 16:09:57;;;;;;;3.95;3.38;;;;;;;;;;10469724;28;20052;-78
2022/12/30 16:15:07;;;;;;;4.73;3.80;;;;;;;;;;10461766;28;20059;-76
2022/12/30 16:20:21;;;;;;;6.10;4.10;;;;;;;;;;10471172;28;20063;-77
2022/12/30 16:25:31;;;;;;;5.75;4.10;;;;;;;;;;10475694;28;20040;-76
2022/12/30 16:30:33;;;;;;;4.80;4.32;;;;;;;;;;10474722;28;20048;-78
2022/12/30 16:35:33;;;;;;;5.93;4.25;;;;;;;;;;10464837;28;20112;-76
2022/12/30 16:40:35;;;;;;;4.40;4.00;;;;;;;;;;10447732;28;20043;-78
2022/12/30 16:45:36;;;;;;;4.60;3.83;;;;;;;;;;10442506;28;20809;-77
2022/12/30 16:50:43;;;;;;;3.95;3.55;;;;;;;;;;10460653;28;20041;-78
2022/12/30 16:55:44;;;;;;;5.75;3.95;;;;;;;;;;10432884;28;20377;-76
2022/12/30 17:00:48;;;;;;;4.75;3.60;;;;;;;;;;10460889;28;20025;-77
2022/12/30 17:05:49;;;;;;;5.28;3.80;;;;;;;;;;10455482;28;20036;-77
2022/12/30 17:10:53;;;;;;;4.63;3.83;;;;;;;;;;10454105;28;20053;-76
2022/12/30 17:15:53;;;;;;;;;;;;;;;;;;10461571;28;20740;-76
2022/12/30 17:20:55;;;;;;;5.55;3.95;;;;;;;;;;10470234;28;19947;-76
2022/12/30 17:25:56;;;;;;;6.47;4.25;;;;;;;;;;10471384;28;20404;-75
2022/12/30 17:30:56;;;;;;;5.90;3.50;;;;;;;;;;10477123;28;20044;-74
2022/12/30 17:35:57;;;;;;;3.47;3.08;;;;;;;;;;10474061;28;20033;-75
2022/12/30 17:40:57;;;;;;;6.30;3.50;;;;;;;;;;10457318;28;20189;-76
2022/12/30 17:45:58;;;;;;;5.47;3.60;;;;;;;;;;10457893;28;20057;-75
2022/12/30 17:51:02;;;;;;;5.40;4.00;;;;;;;;;;10476106;28;20044;-77
2022/12/30 17:56:03;;;;;;;6.95;3.80;;;;;;;;;;10466472;28;20040;-75
2022/12/30 18:01:03;;;;;;;4.30;3.47;;;;;;;;;;10474639;28;20403;-77
2022/12/30 18:06:06;;;;;;;5.93;3.65;;;;;;;;;;10471078;28;20120;-77
2022/12/30 18:11:10;;;;;;;4.60;3.37;;;;;;;;;;10424004;28;20068;-76
2022/12/30 18:16:15;;;;;;;5.63;3.50;;;;;;;;;;10474853;28;20036;-77
2022/12/30 18:21:18;;;;;;;4.35;3.95;;;;;;;;;;10461287;28;20037;-77
2022/12/30 18:26:22;;;;;;;5.60;3.70;;;;;;;;;;10467095;28;20048;-77
2022/12/30 18:31:24;;;;;;;5.25;3.38;;;;;;;;;;10445920;28;20048;-77
2022/12/30 18:36:27;;;;;;;3.92;3.10;;;;;;;;;;10469157;28;20531;-76
2022/12/30 18:41:28;;;;;;;3.97;2.85;;;;;;;;;;10479931;28;20114;-77
2022/12/30 18:46:29;;;;;;;6.20;3.83;;;;;;;;;;10471590;28;20061;-77
2022/12/30 18:51:36;;;;;;;5.43;4.20;;;;;;;;;;10487104;28;20053;-77
2022/12/30 18:57:10;;;;;;;7.90;5.68;;;;;;;;;;10499736;28;20127;-79
2022/12/30 19:02:10;;;;;;;8.57;5.40;;;;;;;;;;10473188;28;20039;-78
2022/12/30 19:07:11;;;;;;;5.43;3.55;;;;;;;;;;10475990;28;20593;-77
2022/12/30 19:12:11;;;;;;;5.75;3.97;;;;;;;;;;10476758;28;20537;-77
2022/12/30 19:17:12;;;;;;;4.07;3.42;;;;;;;;;;10475199;28;20044;-76
2022/12/30 19:22:13;;;;;;;5.30;4.22;;;;;;;;;;10477102;28;20111;-77
2022/12/30 19:27:14;;;;;;;7.28;4.18;;;;;;;;;;10481917;28;20715;-77
2022/12/30 19:32:14;;;;;;;4.57;3.67;;;;;;;;;;10470897;28;20288;-77
2022/12/30 19:37:15;;;;;;;4.80;3.60;;;;;;;;;;10471874;28;20546;-77
2022/12/30 19:42:15;;;;;;;4.65;3.63;;;;;;;;;;10471475;28;20115;-78
2022/12/30 19:47:16;;;;;;;6.32;4.28;;;;;;;;;;10477379;28;20037;-77
2022/12/30 19:52:16;;;;;;;4.40;3.55;;;;;;;;;;10475047;28;20048;-79
2022/12/30 19:57:16;;;;;;;6.40;4.00;;;;;;;;;;10459553;28;20032;-78
2022/12/30 20:02:17;;;;;;;6.00;3.73;;;;;;;;;;10475298;28;20032;-78
2022/12/30 20:07:17;;;;;;;5.03;3.93;;;;;;;;;;10480091;28;20275;-78
2022/12/30 20:12:17;;;;;;;6.10;3.30;;;;;;;;;;10497159;28;20041;-77
2022/12/30 20:17:18;;;;;;;5.72;4.00;;;;;;;;;;10489719;28;20286;-79
2022/12/30 20:22:18;;;;;;;4.90;3.72;;;;;;;;;;10462356;28;20087;-77
2022/12/30 20:27:19;;;;;;;4.27;3.40;;;;;;;;;;10452991;28;20037;-78
2022/12/30 20:32:19;;;;;;;5.63;3.67;;;;;;;;;;10490239;28;20293;-79
2022/12/30 20:37:19;;;;;;;3.83;3.40;;;;;;;;;;10470755;28;20041;-78
2022/12/30 20:42:20;;;;;;;4.32;3.38;;;;;;;;;;10470650;28;20321;-77
2022/12/30 20:47:20;;;;;;;6.40;3.90;;;;;;;;;;10470316;28;20052;-78
2022/12/30 20:52:20;;;;;;;4.00;3.27;;;;;;;;;;10447143;28;20045;-78
2022/12/30 20:57:21;;;;;;;4.65;3.40;;;;;;;;;;10464501;28;20383;-79
2022/12/30 21:02:22;;;;;;;4.60;3.70;;;;;;;;;;10456122;28;20036;-77
2022/12/30 21:07:23;;;;;;;4.63;3.42;;;;;;;;;;10472698;28;20370;-77
2022/12/30 21:12:24;;;;;;;6.10;3.97;;;;;;;;;;10465069;28;20411;-77
2022/12/30 21:17:24;;;;;;;4.40;3.70;;;;;;;;;;10463649;28;20250;-76
2022/12/30 21:22:25;;;;;;;5.45;4.10;;;;;;;;;;10461395;28;20068;-77
2022/12/30 21:27:25;;;;;;;5.63;4.33;;;;;;;;;;10459415;28;20045;-77
2022/12/30 21:32:25;;;;;;;5.23;3.77;;;;;;;;;;10462909;28;20304;-80
2022/12/30 21:37:26;;;;;;;4.95;4.00;;;;;;;;;;10462707;28;20286;-77
2022/12/30 22:03:55;;;;;;;5.88;4.13;;;;;;;;;;10451309;28;20049;-77
2022/12/30 22:08:56;;;;;;;4.43;3.78;;;;;;;;;;10483729;28;20041;-77
2022/12/30 22:13:57;;;;;;;4.00;3.23;;;;;;;;;;10479816;28;20037;-76
2022/12/30 22:18:57;;;;;;;4.80;4.07;;;;;;;;;;10453369;28;20291;-77
2022/12/30 22:23:57;;;;;;;4.88;3.33;;;;;;;;;;10459287;28;20129;-78
2022/12/30 22:28:58;;;;;;;4.30;3.73;;;;;;;;;;10448801;28;20061;-78
2022/12/30 22:33:58;;;;;;;6.20;3.30;;;;;;;;;;10433951;28;20786;-77
2022/12/30 22:38:59;;;;;;;4.57;3.33;;;;;;;;;;10471326;28;20665;-78
2022/12/30 22:44:00;;;;;;;4.82;3.67;;;;;;;;;;10470778;28;20085;-77
2022/12/30 22:49:01;;;;;;;7.07;4.05;;;;;;;;;;10472753;28;20131;-77
2022/12/30 22:54:02;;;;;;;4.57;3.90;;;;;;;;;;10468448;28;20033;-76
2022/12/30 22:59:02;;;;;;;5.35;3.38;;;;;;;;;;10476277;28;20309;-79
2022/12/30 23:04:03;;;;;;;5.07;3.53;;;;;;;;;;10474092;28;20127;-76
2022/12/30 23:09:03;;;;;;;5.15;2.65;;;;;;;;;;10471998;28;20056;-78
2022/12/30 23:19:25;;;;;;;4.38;2.83;;;;;;;;;;10456824;28;20115;-77
2022/12/30 23:29:45;;;;;;;4.07;2.60;;;;;;;;;;10470236;28;20037;-78
2022/12/30 23:34:45;;;;;;;3.58;2.65;;;;;;;;;;10466337;28;20045;-77
2022/12/30 23:39:46;;;;;;;4.00;2.60;;;;;;;;;;10428110;28;20041;-77
2022/12/30 23:44:46;;;;;;;2.60;2.38;;;;;;;;;;10468667;28;20032;-79
2022/12/30 23:49:46;;;;;;;4.45;2.90;;;;;;;;;;10455867;28;20051;-77
2022/12/30 23:54:47;;;;;;;2.60;2.20;;;;;;;;;;10462248;28;20421;-76
2022/12/30 23:59:47;;;;;;;4.03;2.00;;;;;;;;;;10466583;28;20379;-78
